createdAt,value
2022-10-02T00:02:12.768Z,12.00
2022-10-02T00:04:44.211Z,12.00
2022-10-02T00:07:13.077Z,12.00
2022-10-02T00:09:55.550Z,12.00
2022-10-02T00:12:26.311Z,12.00
2022-10-02T00:15:00.553Z,12.10
2022-10-02T00:17:36.297Z,12.00
2022-10-02T00:20:12.720Z,12.10
2022-10-02T00:23:02.664Z,12.10
2022-10-02T00:25:40.652Z,12.10
2022-10-02T00:28:32.070Z,12.10
2022-10-02T00:31:08.037Z,12.10
2022-10-02T00:33:51.836Z,12.10
2022-10-02T00:36:37.585Z,12.10
2022-10-02T00:39:45.007Z,12.10
2022-10-02T00:42:22.359Z,12.10
2022-10-02T00:45:00.713Z,12.10
2022-10-02T00:47:40.214Z,12.10
2022-10-02T00:50:38.023Z,12.10
2022-10-02T00:53:13.816Z,12.10
2022-10-02T00:56:01.144Z,12.10
2022-10-02T00:58:49.086Z,12.10
2022-10-02T01:01:24.298Z,12.10
2022-10-02T01:03:54.529Z,12.10
2022-10-02T01:06:25.732Z,12.10
2022-10-02T01:08:52.948Z,12.10
2022-10-02T01:11:26.281Z,12.10
2022-10-02T01:13:53.740Z,12.10
2022-10-02T01:16:20.880Z,12.10
2022-10-02T01:18:48.278Z,12.10
2022-10-02T01:21:31.411Z,12.10
2022-10-02T01:24:26.376Z,12.10
2022-10-02T01:26:53.539Z,12.10
2022-10-02T01:29:20.476Z,12.10
2022-10-02T01:31:47.532Z,12.10
2022-10-02T01:34:15.095Z,12.10
2022-10-02T01:36:42.191Z,12.10
2022-10-02T01:39:09.557Z,12.10
2022-10-02T01:41:43.020Z,12.10
2022-10-02T01:44:11.703Z,12.10
2022-10-02T01:46:47.983Z,12.10
2022-10-02T01:49:14.898Z,12.10
2022-10-02T01:51:53.525Z,12.10
2022-10-02T01:54:44.492Z,12.00
2022-10-02T01:57:58.029Z,12.00
2022-10-02T02:00:26.333Z,12.00
2022-10-02T02:03:12.744Z,11.90
2022-10-02T02:05:58.542Z,12.00
2022-10-02T02:08:31.334Z,11.90
2022-10-02T02:11:09.542Z,11.90
2022-10-02T02:13:51.105Z,11.90
2022-10-02T02:16:23.487Z,11.90
2022-10-02T02:19:33.758Z,11.90
2022-10-02T02:22:28.105Z,11.90
2022-10-02T02:25:20.037Z,11.90
2022-10-02T02:27:54.267Z,11.90
2022-10-02T02:30:23.865Z,11.90
2022-10-02T02:32:55.778Z,11.90
2022-10-02T02:35:27.223Z,11.90
2022-10-02T02:38:03.612Z,11.90
2022-10-02T02:40:32.983Z,11.90
2022-10-02T02:43:23.143Z,11.90
2022-10-02T02:45:57.581Z,12.00
2022-10-02T02:48:28.070Z,12.00
2022-10-02T02:51:00.361Z,12.00
2022-10-02T02:53:36.810Z,12.00
2022-10-02T02:56:08.205Z,12.00
2022-10-02T02:58:48.723Z,12.00
2022-10-02T03:01:15.793Z,12.00
2022-10-02T03:03:42.849Z,11.90
2022-10-02T03:06:15.878Z,11.90
2022-10-02T03:08:44.163Z,11.90
2022-10-02T03:11:51.022Z,11.90
2022-10-02T03:14:39.931Z,11.90
2022-10-02T03:17:31.549Z,11.90
2022-10-02T03:20:11.996Z,11.80
2022-10-02T03:22:53.171Z,11.80
2022-10-02T03:25:34.829Z,11.80
2022-10-02T03:28:10.957Z,11.80
2022-10-02T03:30:38.818Z,11.70
2022-10-02T03:33:07.476Z,11.70
2022-10-02T03:35:34.900Z,11.70
2022-10-02T03:38:09.923Z,11.70
2022-10-02T03:40:36.876Z,11.70
2022-10-02T03:43:04.676Z,11.70
2022-10-02T03:45:51.327Z,11.70
2022-10-02T03:48:18.944Z,11.70
2022-10-02T03:50:46.237Z,11.70
2022-10-02T03:53:22.058Z,11.70
2022-10-02T03:56:09.300Z,11.70
2022-10-02T03:58:41.127Z,11.60
2022-10-02T04:01:13.929Z,11.60
2022-10-02T04:03:49.330Z,11.60
2022-10-02T04:06:22.747Z,11.60
2022-10-02T04:09:06.580Z,11.60
2022-10-02T04:11:37.127Z,11.60
2022-10-02T04:14:13.292Z,11.60
2022-10-02T04:16:46.790Z,11.60
2022-10-02T04:19:32.673Z,11.60
2022-10-02T04:22:24.698Z,11.60
2022-10-02T04:25:02.241Z,11.60
2022-10-02T04:27:38.372Z,11.60
2022-10-02T04:30:18.135Z,11.60
2022-10-02T04:32:45.779Z,11.60
2022-10-02T04:35:14.138Z,11.60
2022-10-02T04:37:41.081Z,11.60
2022-10-02T04:40:32.285Z,11.60
2022-10-02T04:43:23.959Z,11.60
2022-10-02T04:46:02.839Z,11.60
2022-10-02T04:49:01.571Z,11.60
2022-10-02T04:51:46.722Z,11.60
2022-10-02T04:54:25.736Z,11.60
2022-10-02T04:57:21.060Z,11.60
2022-10-02T04:59:57.185Z,11.60
2022-10-02T05:02:30.294Z,11.60
2022-10-02T05:05:40.963Z,11.60
2022-10-02T05:08:11.577Z,11.60
2022-10-02T05:11:06.885Z,11.60
2022-10-02T05:14:01.132Z,11.60
2022-10-02T05:16:50.114Z,11.60
2022-10-02T05:19:48.829Z,11.60
2022-10-02T05:22:40.953Z,11.50
2022-10-02T05:25:23.040Z,11.50
2022-10-02T05:28:02.085Z,11.50
2022-10-02T05:30:46.536Z,11.50
2022-10-02T05:33:32.286Z,11.50
2022-10-02T05:36:05.070Z,11.50
2022-10-02T05:38:53.240Z,11.40
2022-10-02T05:41:47.148Z,11.40
2022-10-02T05:44:22.377Z,11.40
2022-10-02T05:47:18.189Z,11.30
2022-10-02T05:50:00.694Z,11.30
2022-10-02T05:52:37.283Z,11.30
2022-10-02T05:55:26.778Z,11.30
2022-10-02T05:58:19.718Z,11.30
2022-10-02T06:01:02.645Z,11.20
2022-10-02T06:03:34.478Z,11.20
2022-10-02T06:06:10.249Z,11.20
2022-10-02T06:08:42.948Z,11.20
2022-10-02T06:11:35.968Z,11.20
2022-10-02T06:14:14.563Z,11.10
2022-10-02T06:16:54.280Z,11.10
2022-10-02T06:19:34.004Z,11.20
2022-10-02T06:22:09.276Z,11.10
2022-10-02T06:25:09.037Z,11.20
2022-10-02T06:27:43.177Z,11.10
2022-10-02T06:30:16.738Z,11.10
2022-10-02T06:33:19.978Z,11.10
2022-10-02T06:36:08.260Z,11.10
2022-10-02T06:38:58.911Z,11.10
2022-10-02T06:41:38.026Z,11.10
2022-10-02T06:44:22.642Z,11.10
2022-10-02T06:46:58.574Z,11.10
2022-10-02T06:49:28.457Z,11.10
2022-10-02T06:52:15.394Z,11.10
2022-10-02T06:55:31.948Z,11.20
2022-10-02T06:58:16.727Z,11.10
2022-10-02T07:00:52.142Z,11.20
2022-10-02T07:03:27.606Z,11.20
2022-10-02T07:06:16.443Z,11.20
2022-10-02T07:09:02.138Z,11.20
2022-10-02T07:12:07.405Z,11.20
2022-10-02T07:14:45.922Z,11.30
2022-10-02T07:17:34.439Z,11.20
2022-10-02T07:20:11.397Z,11.30
2022-10-02T07:23:07.723Z,11.30
2022-10-02T07:26:07.508Z,11.30
2022-10-02T07:28:50.856Z,11.30
2022-10-02T07:31:32.220Z,11.40
2022-10-02T07:33:59.787Z,11.40
2022-10-02T07:36:37.130Z,11.50
2022-10-02T07:39:28.585Z,11.60
2022-10-02T07:42:10.636Z,11.60
2022-10-02T07:44:43.668Z,11.70
2022-10-02T07:47:31.688Z,11.80
2022-10-02T07:50:07.950Z,11.80
2022-10-02T07:52:40.549Z,11.90
2022-10-02T07:55:22.161Z,11.90
2022-10-02T07:58:01.498Z,11.90
2022-10-02T08:00:32.450Z,11.90
2022-10-02T08:03:02.666Z,11.90
2022-10-02T08:05:50.582Z,12.00
2022-10-02T08:08:59.048Z,12.00
2022-10-02T08:11:37.680Z,12.00
2022-10-02T08:14:32.484Z,12.00
2022-10-02T08:17:08.880Z,12.00
2022-10-02T08:19:48.119Z,12.10
2022-10-02T08:22:29.432Z,12.10
2022-10-02T08:25:04.718Z,12.20
2022-10-02T08:27:55.529Z,12.30
2022-10-02T08:30:22.618Z,12.30
2022-10-02T08:32:49.534Z,12.40
2022-10-02T08:35:19.773Z,12.40
2022-10-02T08:38:10.289Z,12.50
2022-10-02T08:41:18.716Z,12.60
2022-10-02T08:44:14.966Z,12.80
2022-10-02T08:47:05.855Z,13.20
2022-10-02T08:50:02.511Z,13.60
2022-10-02T08:52:45.167Z,14.10
2022-10-02T08:55:34.086Z,14.50
2022-10-02T08:58:34.527Z,15.00
2022-10-02T09:01:21.548Z,15.30
2022-10-02T09:04:10.663Z,15.60
2022-10-02T09:06:40.432Z,16.00
2022-10-02T09:09:45.923Z,16.20
2022-10-02T09:12:15.772Z,16.30
2022-10-02T09:14:49.417Z,16.20
2022-10-02T09:17:19.267Z,16.00
2022-10-02T09:20:05.260Z,15.90
2022-10-02T09:22:46.503Z,15.80
2022-10-02T09:25:37.657Z,15.60
2022-10-02T09:28:23.496Z,15.40
2022-10-02T09:30:50.490Z,15.30
2022-10-02T09:33:46.496Z,15.30
2022-10-02T09:36:51.683Z,15.20
2022-10-02T09:39:43.537Z,15.10
2022-10-02T09:42:42.560Z,15.00
2022-10-02T09:45:18.284Z,15.00
2022-10-02T09:48:05.168Z,15.10
2022-10-02T09:50:45.488Z,15.20
2022-10-02T09:53:57.845Z,15.40
2022-10-02T09:56:24.830Z,15.80
2022-10-02T09:59:00.654Z,16.10
2022-10-02T10:01:40.803Z,16.30
2022-10-02T10:04:20.759Z,16.60
2022-10-02T10:07:00.126Z,16.80
2022-10-02T10:09:58.568Z,17.10
2022-10-02T10:12:38.722Z,17.30
2022-10-02T10:15:40.927Z,17.50
2022-10-02T10:18:09.784Z,17.50
2022-10-02T10:21:01.987Z,17.30
2022-10-02T10:23:57.717Z,17.20
2022-10-02T10:26:43.280Z,17.20
2022-10-02T10:29:28.761Z,17.40
2022-10-02T10:32:19.303Z,17.70
2022-10-02T10:34:55.777Z,18.00
2022-10-02T10:37:50.432Z,18.20
2022-10-02T10:40:38.492Z,18.10
2022-10-02T10:43:42.098Z,17.90
2022-10-02T10:46:12.308Z,17.70
2022-10-02T10:49:02.814Z,17.40
2022-10-02T10:51:59.565Z,17.20
2022-10-02T10:55:20.108Z,16.90
2022-10-02T10:58:15.953Z,16.70
2022-10-02T11:01:18.935Z,16.40
2022-10-02T11:04:20.185Z,16.30
2022-10-02T11:06:59.175Z,16.40
2022-10-02T11:09:50.665Z,16.50
2022-10-02T11:12:52.445Z,16.80
2022-10-02T11:15:41.009Z,17.20
2022-10-02T11:18:19.670Z,17.60
2022-10-02T11:20:52.759Z,17.80
2022-10-02T11:23:22.373Z,18.10
2022-10-02T11:26:01.437Z,18.50
2022-10-02T11:28:40.224Z,18.90
2022-10-02T11:31:35.331Z,19.40
2022-10-02T11:34:24.853Z,19.80
2022-10-02T11:36:56.283Z,20.10
2022-10-02T11:39:55.980Z,20.20
2022-10-02T11:42:42.477Z,20.20
2022-10-02T11:45:24.020Z,20.20
2022-10-02T11:47:53.645Z,20.10
2022-10-02T11:50:23.698Z,19.90
2022-10-02T11:52:53.439Z,19.80
2022-10-02T11:55:53.303Z,19.70
2022-10-02T11:58:45.472Z,19.50
2022-10-02T12:01:53.111Z,19.20
2022-10-02T12:05:03.278Z,19.00
2022-10-02T12:08:03.557Z,18.80
2022-10-02T12:10:42.712Z,18.60
2022-10-02T12:13:15.940Z,18.40
2022-10-02T12:15:44.096Z,18.30
2022-10-02T12:18:29.341Z,18.30
2022-10-02T12:21:27.102Z,18.30
2022-10-02T12:24:54.987Z,18.20
2022-10-02T12:27:45.412Z,18.30
2022-10-02T12:30:20.321Z,18.30
2022-10-02T12:33:07.416Z,18.30
2022-10-02T12:35:54.540Z,18.20
2022-10-02T12:38:51.023Z,18.10
2022-10-02T12:41:46.691Z,17.90
2022-10-02T12:44:37.573Z,17.80
2022-10-02T12:47:26.953Z,17.60
2022-10-02T12:50:09.096Z,17.50
2022-10-02T12:53:07.094Z,17.30
2022-10-02T12:56:01.400Z,17.20
2022-10-02T12:58:40.073Z,17.00
2022-10-02T13:01:31.717Z,16.90
2022-10-02T13:04:34.947Z,16.90
2022-10-02T13:07:20.838Z,16.80
2022-10-02T13:10:05.983Z,16.80
2022-10-02T13:12:42.719Z,16.70
2022-10-02T13:15:25.072Z,16.70
2022-10-02T13:17:58.853Z,16.60
2022-10-02T13:20:39.970Z,16.60
2022-10-02T13:23:31.148Z,16.50
2022-10-02T13:26:13.397Z,16.50
2022-10-02T13:28:43.130Z,16.50
2022-10-02T13:31:36.920Z,16.50
2022-10-02T13:34:37.706Z,16.50
2022-10-02T13:37:15.723Z,16.50
2022-10-02T13:39:59.641Z,16.50
2022-10-02T13:42:58.556Z,16.50
2022-10-02T13:45:36.088Z,16.60
2022-10-02T13:48:24.492Z,16.70
2022-10-02T13:51:22.015Z,16.70
2022-10-02T13:54:04.160Z,16.80
2022-10-02T13:56:40.270Z,16.90
2022-10-02T13:59:39.641Z,17.00
2022-10-02T14:02:41.081Z,17.00
2022-10-02T14:05:17.237Z,17.00
2022-10-02T14:08:13.196Z,17.00
2022-10-02T14:10:42.974Z,17.00
2022-10-02T14:13:16.250Z,16.90
2022-10-02T14:16:32.204Z,16.90
2022-10-02T14:19:24.869Z,16.90
2022-10-02T14:22:12.615Z,16.80
2022-10-02T14:25:07.436Z,16.70
2022-10-02T14:27:55.670Z,16.70
2022-10-02T14:30:23.852Z,16.60
2022-10-02T14:33:36.916Z,16.60
2022-10-02T14:36:09.893Z,16.50
2022-10-02T14:39:09.376Z,16.40
2022-10-02T14:41:49.325Z,16.30
2022-10-02T14:44:31.508Z,16.20
2022-10-02T14:47:42.401Z,16.10
2022-10-02T14:50:18.956Z,16.10
2022-10-02T14:52:49.290Z,16.10
2022-10-02T14:55:25.907Z,16.10
2022-10-02T14:58:30.268Z,16.00
2022-10-02T15:01:15.552Z,16.00
2022-10-02T15:04:08.376Z,16.00
2022-10-02T15:06:56.344Z,15.90
2022-10-02T15:09:43.356Z,15.90
2022-10-02T15:12:15.376Z,15.90
2022-10-02T15:15:07.667Z,15.80
2022-10-02T15:17:53.248Z,15.70
2022-10-02T15:20:40.618Z,15.70
2022-10-02T15:23:24.582Z,15.60
2022-10-02T15:26:19.893Z,15.60
2022-10-02T15:29:13.577Z,15.50
2022-10-02T15:32:03.482Z,15.50
2022-10-02T15:34:49.641Z,15.40
2022-10-02T15:37:36.262Z,15.40
2022-10-02T15:40:46.903Z,15.40
2022-10-02T15:43:17.226Z,15.40
2022-10-02T15:46:12.068Z,15.40
2022-10-02T15:49:08.941Z,15.40
2022-10-02T15:51:51.753Z,15.40
2022-10-02T15:54:38.362Z,15.50
2022-10-02T15:57:51.424Z,15.50
2022-10-02T16:00:20.757Z,15.50
2022-10-02T16:03:06.667Z,15.40
2022-10-02T16:05:48.765Z,15.40
2022-10-02T16:08:41.041Z,15.40
2022-10-02T16:11:44.707Z,15.40
2022-10-02T16:14:15.676Z,15.30
2022-10-02T16:17:04.631Z,15.30
2022-10-02T16:20:03.284Z,15.20
2022-10-02T16:23:08.759Z,15.10
2022-10-02T16:25:49.186Z,15.10
2022-10-02T16:28:47.894Z,15.10
2022-10-02T16:31:33.674Z,15.10
2022-10-02T16:34:35.661Z,15.00
2022-10-02T16:37:24.931Z,15.00
2022-10-02T16:40:03.842Z,15.00
2022-10-02T16:43:13.021Z,15.00
2022-10-02T16:46:31.462Z,15.00
2022-10-02T16:49:16.959Z,15.00
2022-10-02T16:52:02.153Z,15.00
2022-10-02T16:54:43.533Z,15.00
2022-10-02T16:57:50.112Z,14.90
2022-10-02T17:00:35.241Z,14.90
2022-10-02T17:03:34.593Z,14.90
2022-10-02T17:06:24.520Z,14.90
2022-10-02T17:09:05.842Z,14.90
2022-10-02T17:12:03.540Z,14.80
2022-10-02T17:14:39.343Z,14.80
2022-10-02T17:17:15.485Z,14.80
2022-10-02T17:19:54.355Z,14.70
2022-10-02T17:22:38.036Z,14.70
2022-10-02T17:25:23.105Z,14.70
2022-10-02T17:28:21.980Z,14.70
2022-10-02T17:31:01.126Z,14.60
2022-10-02T17:33:45.321Z,14.60
2022-10-02T17:36:27.227Z,14.60
2022-10-02T17:39:15.854Z,14.60
2022-10-02T17:42:02.918Z,14.60
2022-10-02T17:44:55.211Z,14.50
2022-10-02T17:47:40.875Z,14.50
2022-10-02T17:50:19.486Z,14.50
2022-10-02T17:53:10.132Z,14.40
2022-10-02T17:56:14.956Z,14.40
2022-10-02T17:59:13.317Z,14.40
2022-10-02T18:02:19.839Z,14.30
2022-10-02T18:05:05.468Z,14.20
2022-10-02T18:07:55.476Z,14.20
2022-10-02T18:10:41.008Z,14.20
2022-10-02T18:13:14.781Z,14.10
2022-10-02T18:16:02.939Z,14.10
2022-10-02T18:18:41.834Z,14.00
2022-10-02T18:21:37.489Z,14.00
2022-10-02T18:24:07.645Z,13.90
2022-10-02T18:26:49.498Z,13.90
2022-10-02T18:29:22.357Z,13.80
2022-10-02T18:32:15.869Z,13.80
2022-10-02T18:34:45.755Z,13.70
2022-10-02T18:37:32.183Z,13.70
2022-10-02T18:40:22.375Z,13.60
2022-10-02T18:43:16.650Z,13.60
2022-10-02T18:45:47.955Z,13.50
2022-10-02T18:48:23.849Z,13.50
2022-10-02T18:51:11.750Z,13.50
2022-10-02T18:54:03.261Z,13.40
2022-10-02T18:56:52.981Z,13.30
2022-10-02T18:59:29.364Z,13.30
2022-10-02T19:02:18.046Z,13.30
2022-10-02T19:04:54.636Z,13.20
2022-10-02T19:07:35.683Z,13.20
2022-10-02T19:10:27.294Z,13.20
2022-10-02T19:13:07.885Z,13.20
2022-10-02T19:15:35.184Z,13.20
2022-10-02T19:18:15.909Z,13.10
2022-10-02T19:20:55.168Z,13.10
2022-10-02T19:23:24.993Z,13.10
2022-10-02T19:25:56.128Z,13.20
2022-10-02T19:28:27.599Z,13.20
2022-10-02T19:31:19.429Z,13.20
2022-10-02T19:33:51.957Z,13.20
2022-10-02T19:36:25.593Z,13.20
2022-10-02T19:39:05.696Z,13.20
2022-10-02T19:41:40.019Z,13.20
2022-10-02T19:44:20.272Z,13.20
2022-10-02T19:46:54.888Z,13.20
2022-10-02T19:49:30.881Z,13.10
2022-10-02T19:51:58.235Z,13.10
2022-10-02T19:54:36.529Z,13.10
2022-10-02T19:57:16.526Z,13.10
2022-10-02T19:59:53.149Z,13.10
2022-10-02T20:02:40.502Z,13.00
2022-10-02T20:05:12.851Z,13.00
2022-10-02T20:07:40.927Z,13.00
2022-10-02T20:10:15.840Z,13.00
2022-10-02T20:12:58.152Z,13.00
2022-10-02T20:16:00.136Z,12.90
2022-10-02T20:18:27.624Z,12.90
2022-10-02T20:21:06.639Z,12.90
2022-10-02T20:23:36.940Z,12.90
2022-10-02T20:26:08.879Z,12.90
2022-10-02T20:28:52.126Z,12.90
2022-10-02T20:31:31.098Z,12.90
2022-10-02T20:34:04.636Z,12.80
2022-10-02T20:36:48.025Z,12.80
2022-10-02T20:39:21.092Z,12.80
2022-10-02T20:42:14.837Z,12.80
2022-10-02T20:44:41.986Z,12.80
2022-10-02T20:47:19.665Z,12.80
2022-10-02T20:50:05.477Z,12.80
2022-10-02T20:52:41.739Z,12.70
2022-10-02T20:55:26.397Z,12.70
2022-10-02T20:58:18.278Z,12.70
2022-10-02T21:01:15.383Z,12.70
2022-10-02T21:04:01.029Z,12.70
2022-10-02T21:06:46.308Z,12.70
2022-10-02T21:09:37.073Z,12.70
2022-10-02T21:12:46.006Z,12.70
2022-10-02T21:15:18.796Z,12.70
2022-10-02T21:18:10.079Z,12.60
2022-10-02T21:20:58.446Z,12.60
2022-10-02T21:23:25.264Z,12.60
2022-10-02T21:26:16.640Z,12.60
2022-10-02T21:29:01.410Z,12.60
2022-10-02T21:31:50.650Z,12.50
2022-10-02T21:34:23.865Z,12.50
2022-10-02T21:36:58.991Z,12.50
2022-10-02T21:39:50.165Z,12.50
2022-10-02T21:42:42.053Z,12.50
2022-10-02T21:45:41.205Z,12.50
2022-10-02T21:48:29.715Z,12.40
2022-10-02T21:51:47.062Z,12.40
2022-10-02T21:54:35.748Z,12.40
2022-10-02T21:57:25.667Z,12.40
2022-10-02T22:00:31.569Z,12.30
2022-10-02T22:03:23.424Z,12.30
2022-10-02T22:06:01.888Z,12.30
2022-10-02T22:08:33.865Z,12.30
2022-10-02T22:11:06.776Z,12.20
2022-10-02T22:13:41.010Z,12.20
2022-10-02T22:16:27.014Z,12.20
2022-10-02T22:18:57.355Z,12.20
2022-10-02T22:21:40.484Z,12.20
2022-10-02T22:24:43.738Z,12.10
2022-10-02T22:27:38.998Z,12.10
2022-10-02T22:30:06.940Z,12.10
2022-10-02T22:33:13.614Z,12.10
2022-10-02T22:36:01.643Z,12.10
2022-10-02T22:38:56.410Z,12.00
2022-10-02T22:41:33.974Z,12.10
2022-10-02T22:44:28.889Z,12.00
2022-10-02T22:47:15.156Z,12.00
2022-10-02T22:49:50.541Z,12.00
2022-10-02T22:52:30.159Z,12.00
2022-10-02T22:55:03.096Z,12.00
2022-10-02T22:58:04.657Z,12.00
2022-10-02T23:00:57.261Z,11.90
2022-10-02T23:03:44.821Z,11.90
2022-10-02T23:06:22.528Z,11.90
2022-10-02T23:09:03.345Z,11.90
2022-10-02T23:11:44.238Z,11.80
2022-10-02T23:14:26.791Z,11.80
2022-10-02T23:17:04.217Z,11.80
2022-10-02T23:20:10.406Z,11.80
2022-10-02T23:22:57.252Z,11.80
2022-10-02T23:25:31.134Z,11.80
2022-10-02T23:28:15.221Z,11.70
2022-10-02T23:30:48.913Z,11.70
2022-10-02T23:33:38.370Z,11.70
2022-10-02T23:36:33.737Z,11.70
2022-10-02T23:39:26.593Z,11.70
2022-10-02T23:41:56.544Z,11.60
2022-10-02T23:44:43.105Z,11.60
2022-10-02T23:47:16.722Z,11.60
2022-10-02T23:49:55.886Z,11.60
2022-10-02T23:52:52.427Z,11.60
2022-10-02T23:55:41.859Z,11.60
2022-10-02T23:58:38.727Z,11.50
